createdAt,value
2023-05-07T00:00:50.742Z,0.20
2023-05-07T00:03:20.168Z,0.27
2023-05-07T00:05:49.117Z,0.20
2023-05-07T00:08:17.173Z,0.30
2023-05-07T00:10:45.260Z,0.30
2023-05-07T00:13:13.348Z,0.20
2023-05-07T00:15:43.782Z,0.20
2023-05-07T00:18:11.718Z,0.20
2023-05-07T00:20:41.144Z,0.20
2023-05-07T00:23:10.196Z,0.20
2023-05-07T00:25:38.134Z,0.20
2023-05-07T00:28:06.327Z,0.20
2023-05-07T00:30:34.635Z,0.20
2023-05-07T00:33:02.650Z,0.20
2023-05-07T00:35:31.494Z,0.20
2023-05-07T00:38:01.145Z,0.20
2023-05-07T00:40:29.261Z,0.20
2023-05-07T00:42:59.271Z,0.20
2023-05-07T00:45:32.198Z,0.20
2023-05-07T00:48:02.310Z,0.20
2023-05-07T00:50:31.707Z,0.20
2023-05-07T00:53:01.876Z,0.20
2023-05-07T00:55:33.133Z,0.10
2023-05-07T00:58:01.655Z,0.20
2023-05-07T01:00:29.837Z,0.20
2023-05-07T01:02:58.667Z,0.20
2023-05-07T01:05:28.772Z,0.20
2023-05-07T01:07:58.810Z,0.20
2023-05-07T01:10:28.851Z,0.20
2023-05-07T01:12:57.118Z,0.20
2023-05-07T01:15:25.388Z,0.20
2023-05-07T01:17:53.609Z,0.20
2023-05-07T01:20:21.913Z,0.20
2023-05-07T01:22:51.580Z,0.20
2023-05-07T01:25:20.633Z,0.20
2023-05-07T01:27:48.774Z,0.20
2023-05-07T01:30:18.356Z,0.20
2023-05-07T01:32:53.152Z,0.30
2023-05-07T01:35:24.206Z,0.20
2023-05-07T01:37:56.009Z,0.20
2023-05-07T01:40:27.683Z,0.20
2023-05-07T01:42:56.756Z,0.20
2023-05-07T01:45:25.873Z,0.20
2023-05-07T01:47:55.182Z,0.17
2023-05-07T01:50:23.310Z,0.20
2023-05-07T01:52:54.206Z,0.20
2023-05-07T01:55:22.206Z,0.20
2023-05-07T01:57:50.157Z,0.20
2023-05-07T02:00:20.012Z,0.20
2023-05-07T02:02:48.343Z,0.20
2023-05-07T02:05:16.281Z,0.20
2023-05-07T02:07:44.309Z,0.20
2023-05-07T02:10:14.173Z,0.20
2023-05-07T02:12:42.188Z,0.20
2023-05-07T02:15:11.590Z,0.20
2023-05-07T02:18:00.517Z,0.20
2023-05-07T02:20:28.628Z,0.20
2023-05-07T02:22:56.723Z,0.20
2023-05-07T02:25:26.067Z,0.20
2023-05-07T02:27:54.424Z,0.20
2023-05-07T02:30:23.282Z,0.20
2023-05-07T02:32:51.331Z,0.20
2023-05-07T02:35:19.758Z,0.20
2023-05-07T02:37:47.823Z,0.20
2023-05-07T02:40:16.157Z,0.20
2023-05-07T02:42:45.621Z,0.20
2023-05-07T02:45:13.803Z,0.20
2023-05-07T02:47:41.806Z,0.20
2023-05-07T02:50:10.266Z,0.10
2023-05-07T02:52:39.258Z,0.17
2023-05-07T02:55:09.544Z,0.20
2023-05-07T02:57:37.691Z,0.30
2023-05-07T03:00:18.807Z,0.20
2023-05-07T03:02:46.973Z,0.20
2023-05-07T03:05:15.504Z,0.20
2023-05-07T03:07:50.606Z,0.20
2023-05-07T03:10:26.744Z,0.20
2023-05-07T03:12:55.668Z,0.20
2023-05-07T03:15:28.815Z,0.20
2023-05-07T03:18:05.847Z,0.20
2023-05-07T03:20:42.963Z,0.20
2023-05-07T03:23:10.910Z,0.20
2023-05-07T03:25:41.942Z,0.20
2023-05-07T03:28:16.804Z,0.20
2023-05-07T03:30:52.047Z,0.20
2023-05-07T03:33:23.919Z,0.20
2023-05-07T03:35:52.050Z,0.20
2023-05-07T03:38:19.981Z,0.20
2023-05-07T03:40:48.002Z,0.20
2023-05-07T03:43:16.210Z,0.30
2023-05-07T03:45:44.620Z,0.20
2023-05-07T03:48:14.020Z,0.20
2023-05-07T03:50:42.305Z,0.20
2023-05-07T03:53:16.455Z,0.17
2023-05-07T03:55:44.726Z,0.20
2023-05-07T03:58:12.776Z,0.20
2023-05-07T04:00:41.991Z,0.20
2023-05-07T04:03:10.390Z,0.20
2023-05-07T04:05:39.858Z,0.20
2023-05-07T04:08:07.868Z,0.20
2023-05-07T04:10:35.752Z,0.20
2023-05-07T04:13:04.182Z,0.20
2023-05-07T04:15:32.246Z,0.20
2023-05-07T04:18:00.401Z,0.20
2023-05-07T04:20:28.398Z,0.20
2023-05-07T04:22:57.695Z,0.30
2023-05-07T04:25:27.433Z,0.20
2023-05-07T04:27:57.391Z,0.10
2023-05-07T04:30:28.965Z,0.20
2023-05-07T04:32:58.100Z,0.20
2023-05-07T04:35:27.498Z,0.20
2023-05-07T04:37:57.100Z,0.20
2023-05-07T04:40:26.209Z,0.20
2023-05-07T04:42:55.206Z,0.20
2023-05-07T04:45:23.671Z,0.27
2023-05-07T04:47:52.076Z,0.20
2023-05-07T04:50:21.047Z,0.20
2023-05-07T04:52:49.056Z,0.20
2023-05-07T04:55:18.533Z,0.20
2023-05-07T04:57:46.453Z,0.20
2023-05-07T05:00:15.650Z,0.20
2023-05-07T05:02:43.806Z,0.20
2023-05-07T05:05:11.860Z,0.20
2023-05-07T05:07:39.794Z,0.20
2023-05-07T05:10:08.842Z,0.20
2023-05-07T05:12:40.167Z,0.20
2023-05-07T05:15:09.727Z,0.20
2023-05-07T05:17:38.013Z,0.20
2023-05-07T05:20:07.934Z,0.20
2023-05-07T05:22:36.308Z,0.20
2023-05-07T05:25:06.568Z,0.20
2023-05-07T05:27:34.876Z,0.20
2023-05-07T05:30:05.358Z,0.20
2023-05-07T05:32:34.760Z,0.20
2023-05-07T05:35:02.909Z,0.20
2023-05-07T05:37:31.270Z,0.20
2023-05-07T05:39:59.759Z,0.20
2023-05-07T05:42:28.035Z,0.20
2023-05-07T05:44:57.502Z,0.20
2023-05-07T05:47:27.953Z,0.20
2023-05-07T05:49:56.934Z,0.20
2023-05-07T05:52:25.333Z,0.20
2023-05-07T05:54:56.378Z,0.20
2023-05-07T05:57:25.987Z,0.20
2023-05-07T05:59:55.087Z,0.20
2023-05-07T06:02:23.135Z,0.20
2023-05-07T06:04:52.930Z,0.20
2023-05-07T06:07:20.877Z,0.20
2023-05-07T06:09:48.793Z,0.20
2023-05-07T06:12:16.714Z,0.20
2023-05-07T06:14:45.301Z,0.27
2023-05-07T06:17:13.383Z,0.30
2023-05-07T06:19:41.303Z,0.20
2023-05-07T06:22:11.930Z,0.20
2023-05-07T06:24:39.915Z,0.20
2023-05-07T06:27:09.403Z,0.20
2023-05-07T06:29:37.690Z,0.20
2023-05-07T06:32:15.766Z,0.20
2023-05-07T06:34:43.863Z,0.20
2023-05-07T06:37:13.363Z,0.20
2023-05-07T06:39:41.471Z,0.20
2023-05-07T06:42:10.581Z,0.20
2023-05-07T06:44:40.056Z,0.20
2023-05-07T06:47:09.951Z,0.20
2023-05-07T06:49:40.697Z,0.20
2023-05-07T06:52:09.883Z,0.20
2023-05-07T06:54:39.347Z,0.20
2023-05-07T06:57:08.171Z,0.20
2023-05-07T06:59:36.579Z,0.20
2023-05-07T07:02:04.621Z,0.20
2023-05-07T07:04:32.840Z,0.20
2023-05-07T07:07:01.000Z,0.20
2023-05-07T07:09:29.087Z,0.20
2023-05-07T07:11:58.621Z,0.30
2023-05-07T07:14:26.842Z,0.20
2023-05-07T07:16:55.961Z,0.20
2023-05-07T07:19:24.003Z,0.20
2023-05-07T07:21:52.323Z,0.23
2023-05-07T07:24:22.482Z,0.30
2023-05-07T07:26:50.796Z,0.30
2023-05-07T07:29:20.800Z,0.30
2023-05-07T07:31:51.320Z,0.20
2023-05-07T07:34:19.620Z,0.20
2023-05-07T07:36:47.565Z,0.20
2023-05-07T07:39:15.744Z,0.30
2023-05-07T07:41:44.257Z,0.30
2023-05-07T07:44:15.921Z,0.30
2023-05-07T07:46:46.174Z,0.30
2023-05-07T07:49:14.888Z,0.30
2023-05-07T07:51:43.919Z,0.30
2023-05-07T07:54:25.806Z,0.30
2023-05-07T07:57:06.358Z,0.30
2023-05-07T07:59:40.725Z,0.30
2023-05-07T08:02:29.064Z,0.20
2023-05-07T08:04:58.411Z,0.20
2023-05-07T08:11:22.328Z,0.20
2023-05-07T08:13:51.404Z,0.30
2023-05-07T08:16:26.615Z,0.20
2023-05-07T08:18:56.097Z,0.30
2023-05-07T08:21:24.235Z,0.20
2023-05-07T08:23:54.267Z,0.20
2023-05-07T08:26:22.543Z,0.20
2023-05-07T08:28:53.564Z,0.20
2023-05-07T08:31:21.627Z,0.27
2023-05-07T08:33:51.059Z,0.30
2023-05-07T08:36:21.019Z,0.20
2023-05-07T08:38:48.937Z,0.23
2023-05-07T08:41:18.941Z,0.20
2023-05-07T08:43:50.044Z,0.20
2023-05-07T08:46:23.779Z,0.20
2023-05-07T08:48:52.918Z,0.20
2023-05-07T08:51:23.929Z,0.20
2023-05-07T08:53:56.731Z,0.20
2023-05-07T08:56:24.784Z,0.20
2023-05-07T08:58:52.770Z,0.23
2023-05-07T09:01:21.863Z,0.20
2023-05-07T09:03:50.775Z,0.20
2023-05-07T09:06:19.021Z,0.20
2023-05-07T09:08:53.029Z,0.20
2023-05-07T09:11:23.599Z,0.23
2023-05-07T09:13:56.722Z,0.20
2023-05-07T09:16:25.604Z,0.20
2023-05-07T09:18:55.009Z,0.20
2023-05-07T09:21:30.963Z,0.20
2023-05-07T09:24:00.338Z,0.20
2023-05-07T09:26:29.358Z,0.20
2023-05-07T09:29:01.704Z,0.20
2023-05-07T09:31:32.228Z,0.20
2023-05-07T09:34:00.277Z,0.20
2023-05-07T09:36:29.326Z,0.20
2023-05-07T09:38:57.674Z,0.20
2023-05-07T09:41:27.234Z,0.20
2023-05-07T09:43:56.479Z,0.20
2023-05-07T09:46:30.152Z,0.20
2023-05-07T09:49:12.294Z,0.20
2023-05-07T09:51:45.255Z,0.20
2023-05-07T09:54:14.064Z,0.20
2023-05-07T09:56:45.514Z,0.20
2023-05-07T09:59:16.539Z,0.20
2023-05-07T10:01:45.885Z,0.20
2023-05-07T10:04:14.384Z,0.20
2023-05-07T10:06:43.808Z,0.20
2023-05-07T10:09:13.282Z,0.20
2023-05-07T10:11:44.385Z,0.20
2023-05-07T10:14:12.892Z,0.20
2023-05-07T10:16:41.199Z,0.20
2023-05-07T10:19:12.123Z,0.20
2023-05-07T10:21:41.506Z,0.20
2023-05-07T10:24:16.156Z,0.20
2023-05-07T10:26:51.901Z,0.20
2023-05-07T10:29:27.216Z,0.20
2023-05-07T10:32:02.223Z,0.10
2023-05-07T10:34:34.942Z,0.20
2023-05-07T10:37:26.637Z,0.20
2023-05-07T10:39:54.941Z,0.20
2023-05-07T10:42:24.641Z,0.10
2023-05-07T10:44:53.778Z,0.10
2023-05-07T10:47:22.847Z,0.20
2023-05-07T10:50:25.548Z,0.20
2023-05-07T10:53:29.917Z,0.20
2023-05-07T10:56:31.708Z,0.20
2023-05-07T10:59:41.833Z,0.10
2023-05-07T11:02:12.422Z,0.10
2023-05-07T11:04:42.869Z,0.20
2023-05-07T11:07:31.803Z,0.10
2023-05-07T11:10:07.224Z,0.20
2023-05-07T11:12:52.842Z,0.17
2023-05-07T11:15:47.094Z,0.10
2023-05-07T11:18:18.409Z,0.20
2023-05-07T11:20:58.776Z,0.10
2023-05-07T11:24:09.977Z,0.10
2023-05-07T11:26:49.071Z,0.10
2023-05-07T11:29:21.579Z,0.20
2023-05-07T11:31:56.212Z,0.20
2023-05-07T11:34:26.835Z,0.20
2023-05-07T11:36:55.542Z,0.10
2023-05-07T11:39:29.902Z,0.10
2023-05-07T11:41:59.420Z,0.20
2023-05-07T11:44:27.571Z,0.20
2023-05-07T11:46:57.046Z,0.20
2023-05-07T11:49:28.875Z,0.10
2023-05-07T11:51:56.945Z,0.20
2023-05-07T11:54:24.932Z,0.13
2023-05-07T11:56:52.997Z,0.10
2023-05-07T11:59:23.615Z,0.10
2023-05-07T12:01:52.045Z,0.10
2023-05-07T12:04:24.897Z,0.10
2023-05-07T12:06:59.686Z,0.20
2023-05-07T12:09:28.241Z,0.00
2023-05-07T12:11:57.546Z,0.07
2023-05-07T12:14:30.026Z,0.10
2023-05-07T12:17:03.689Z,0.10
2023-05-07T12:19:36.382Z,0.10
2023-05-07T12:22:05.872Z,0.10
2023-05-07T12:24:59.150Z,0.10
2023-05-07T12:27:32.710Z,0.20
2023-05-07T12:30:01.135Z,0.10
2023-05-07T12:32:38.029Z,0.10
2023-05-07T12:35:46.160Z,0.10
2023-05-07T12:38:39.423Z,0.20
2023-05-07T12:42:06.802Z,0.20
2023-05-07T12:44:53.348Z,0.13
2023-05-07T12:47:52.424Z,0.10
2023-05-07T12:50:36.448Z,0.10
2023-05-07T12:57:15.006Z,0.10
2023-05-07T12:59:45.235Z,0.10
2023-05-07T13:02:35.223Z,0.10
2023-05-07T13:05:08.141Z,0.10
2023-05-07T13:07:40.709Z,0.10
2023-05-07T13:10:09.994Z,0.10
2023-05-07T13:12:44.805Z,0.10
2023-05-07T13:15:14.172Z,0.07
2023-05-07T13:17:43.059Z,0.10
2023-05-07T13:20:13.723Z,0.10
2023-05-07T13:22:42.013Z,0.10
2023-05-07T13:25:11.966Z,0.10
2023-05-07T13:27:44.060Z,0.20
2023-05-07T13:30:12.823Z,0.10
2023-05-07T13:32:43.285Z,0.20
2023-05-07T13:35:12.127Z,0.10
2023-05-07T13:37:40.496Z,0.10
2023-05-07T13:40:11.794Z,0.10
2023-05-07T13:42:43.751Z,0.10
2023-05-07T13:45:15.124Z,0.20
2023-05-07T13:47:43.229Z,0.17
2023-05-07T13:50:14.664Z,0.10
2023-05-07T13:52:46.994Z,0.10
2023-05-07T13:55:15.484Z,0.10
2023-05-07T13:57:45.068Z,0.10
2023-05-07T14:00:17.587Z,0.10
2023-05-07T14:02:45.919Z,0.00
2023-05-07T14:05:14.596Z,0.10
2023-05-07T14:07:42.622Z,0.00
2023-05-07T14:10:12.529Z,0.00
2023-05-07T14:12:41.752Z,0.00
2023-05-07T14:15:40.271Z,0.00
2023-05-07T14:18:08.299Z,0.10
2023-05-07T14:20:38.633Z,0.00
2023-05-07T14:23:06.624Z,0.10
2023-05-07T14:25:34.710Z,0.00
2023-05-07T14:28:02.830Z,0.00
2023-05-07T14:30:32.472Z,0.00
2023-05-07T14:33:00.735Z,0.00
2023-05-07T14:35:28.783Z,0.00
2023-05-07T14:37:56.669Z,0.10
2023-05-07T14:40:25.138Z,0.10
2023-05-07T14:42:58.328Z,0.10
2023-05-07T14:45:26.662Z,0.10
2023-05-07T14:47:57.862Z,0.10
2023-05-07T14:50:26.288Z,0.10
2023-05-07T14:52:54.513Z,0.20
2023-05-07T14:55:22.729Z,0.10
2023-05-07T14:57:50.928Z,0.10
2023-05-07T15:00:19.434Z,0.10
2023-05-07T15:02:47.452Z,0.10
2023-05-07T15:05:17.139Z,0.10
2023-05-07T15:07:45.740Z,0.10
2023-05-07T15:10:14.444Z,0.10
2023-05-07T15:12:42.403Z,0.03
2023-05-07T15:15:41.688Z,0.10
2023-05-07T15:18:09.827Z,0.10
2023-05-07T15:20:39.744Z,0.10
2023-05-07T15:23:10.860Z,0.10
2023-05-07T15:25:38.973Z,0.17
2023-05-07T15:28:09.656Z,0.10
2023-05-07T15:30:37.756Z,0.10
2023-05-07T15:33:15.707Z,0.10
2023-05-07T15:35:46.245Z,0.10
2023-05-07T15:38:15.021Z,0.20
2023-05-07T15:40:44.444Z,0.10
2023-05-07T15:43:13.535Z,0.10
2023-05-07T15:45:43.055Z,0.10
2023-05-07T15:48:12.013Z,0.10
2023-05-07T15:50:40.148Z,0.10
2023-05-07T15:53:12.821Z,0.10
2023-05-07T15:55:43.153Z,0.10
2023-05-07T15:58:13.080Z,0.20
2023-05-07T16:00:42.199Z,0.10
2023-05-07T16:03:10.170Z,0.10
2023-05-07T16:05:38.418Z,0.10
2023-05-07T16:08:09.747Z,0.10
2023-05-07T16:10:39.147Z,0.20
2023-05-07T16:13:08.094Z,0.20
2023-05-07T16:15:36.295Z,0.20
2023-05-07T16:18:05.384Z,0.20
2023-05-07T16:20:33.424Z,0.10
2023-05-07T16:23:01.361Z,0.20
2023-05-07T16:25:29.272Z,0.10
2023-05-07T16:28:03.427Z,0.10
2023-05-07T16:30:34.691Z,0.07
2023-05-07T16:33:14.530Z,0.10
2023-05-07T16:35:44.786Z,0.10
2023-05-07T16:38:13.247Z,0.00
2023-05-07T16:40:43.248Z,0.10
2023-05-07T16:43:12.471Z,0.10
2023-05-07T16:45:40.833Z,0.10
2023-05-07T16:48:11.005Z,0.10
2023-05-07T16:50:39.895Z,0.10
2023-05-07T16:53:08.966Z,0.10
2023-05-07T16:55:51.345Z,0.10
2023-05-07T16:58:20.864Z,0.10
2023-05-07T17:00:51.581Z,0.10
2023-05-07T17:03:19.838Z,0.10
2023-05-07T17:05:50.171Z,0.10
2023-05-07T17:08:18.211Z,0.10
2023-05-07T17:10:46.883Z,0.10
2023-05-07T17:13:16.018Z,0.10
2023-05-07T17:15:47.931Z,0.20
2023-05-07T17:21:09.186Z,0.10
2023-05-07T17:23:40.816Z,0.10
2023-05-07T17:26:16.025Z,0.20
2023-05-07T17:28:56.249Z,0.20
2023-05-07T17:31:46.372Z,0.10
2023-05-07T17:34:24.504Z,0.10
2023-05-07T17:37:15.435Z,0.20
2023-05-07T17:39:46.724Z,0.10
2023-05-07T17:42:26.828Z,0.20
2023-05-07T17:44:56.024Z,0.10
2023-05-07T17:47:25.670Z,0.10
2023-05-07T17:49:55.653Z,0.10
2023-05-07T17:52:24.515Z,0.17
2023-05-07T17:54:54.351Z,0.10
2023-05-07T17:57:22.677Z,0.17
2023-05-07T17:59:50.630Z,0.20
2023-05-07T18:02:19.384Z,0.20
2023-05-07T18:04:51.089Z,0.20
2023-05-07T18:07:18.952Z,0.20
2023-05-07T18:09:47.671Z,0.20
2023-05-07T18:12:15.692Z,0.20
2023-05-07T18:14:46.999Z,0.20
2023-05-07T18:17:17.841Z,0.10
2023-05-07T18:19:46.029Z,0.20
2023-05-07T18:22:20.055Z,0.20
2023-05-07T18:24:51.002Z,0.20
2023-05-07T18:27:22.942Z,0.20
2023-05-07T18:29:52.489Z,0.20
2023-05-07T18:32:22.636Z,0.20
2023-05-07T18:34:56.449Z,0.20
2023-05-07T18:37:27.114Z,0.20
2023-05-07T18:40:03.949Z,0.20
2023-05-07T18:42:36.281Z,0.20
2023-05-07T18:45:05.873Z,0.20
2023-05-07T18:47:36.768Z,0.20
2023-05-07T18:50:07.474Z,0.20
2023-05-07T18:52:37.945Z,0.20
2023-05-07T18:55:11.908Z,0.20
2023-05-07T18:57:40.095Z,0.20
2023-05-07T19:00:11.017Z,0.20
2023-05-07T19:02:41.838Z,0.20
2023-05-07T19:05:18.504Z,0.20
2023-05-07T19:07:48.804Z,0.20
2023-05-07T19:10:17.402Z,0.20
2023-05-07T19:12:55.421Z,0.20
2023-05-07T19:15:23.754Z,0.20
2023-05-07T19:17:51.875Z,0.20
2023-05-07T19:20:20.341Z,0.20
2023-05-07T19:22:49.710Z,0.20
2023-05-07T19:25:18.242Z,0.20
2023-05-07T19:27:51.321Z,0.20
2023-05-07T19:30:20.029Z,0.20
2023-05-07T19:32:49.356Z,0.20
2023-05-07T19:35:17.631Z,0.23
2023-05-07T19:37:46.326Z,0.20
2023-05-07T19:40:18.898Z,0.20
2023-05-07T19:42:47.204Z,0.20
2023-05-07T19:45:17.028Z,0.20
2023-05-07T19:47:46.666Z,0.20
2023-05-07T19:50:16.252Z,0.20
2023-05-07T19:52:45.577Z,0.10
2023-05-07T19:55:15.468Z,0.20
2023-05-07T19:57:50.082Z,0.23
2023-05-07T20:00:18.555Z,0.20
2023-05-07T20:02:48.817Z,0.20
2023-05-07T20:05:22.497Z,0.20
2023-05-07T20:08:02.565Z,0.20
2023-05-07T20:10:31.983Z,0.20
2023-05-07T20:13:00.966Z,0.20
2023-05-07T20:15:31.269Z,0.20
2023-05-07T20:18:01.303Z,0.20
2023-05-07T20:20:29.293Z,0.20
2023-05-07T20:22:57.424Z,0.20
2023-05-07T20:25:28.313Z,0.20
2023-05-07T20:27:59.382Z,0.20
2023-05-07T20:30:28.214Z,0.20
2023-05-07T20:32:56.470Z,0.20
2023-05-07T20:35:24.853Z,0.20
2023-05-07T20:37:52.939Z,0.23
2023-05-07T20:40:21.226Z,0.30
2023-05-07T20:42:51.074Z,0.20
2023-05-07T20:45:20.802Z,0.30
2023-05-07T20:47:49.014Z,0.20
2023-05-07T20:50:19.061Z,0.20
2023-05-07T20:52:47.729Z,0.20
2023-05-07T20:55:18.077Z,0.20
2023-05-07T20:57:46.239Z,0.20
2023-05-07T21:00:31.883Z,0.30
2023-05-07T21:02:59.814Z,0.20
2023-05-07T21:05:30.461Z,0.20
2023-05-07T21:08:00.948Z,0.20
2023-05-07T21:10:30.047Z,0.20
2023-05-07T21:12:58.207Z,0.20
2023-05-07T21:15:30.140Z,0.20
2023-05-07T21:17:59.838Z,0.20
2023-05-07T21:20:51.389Z,0.20
2023-05-07T21:23:19.645Z,0.20
2023-05-07T21:25:48.333Z,0.20
2023-05-07T21:28:16.732Z,0.30
2023-05-07T21:30:44.615Z,0.30
2023-05-07T21:33:14.989Z,0.20
2023-05-07T21:35:43.365Z,0.20
2023-05-07T21:38:35.389Z,0.30
2023-05-07T21:41:03.483Z,0.30
2023-05-07T21:43:31.448Z,0.23
2023-05-07T21:46:00.698Z,0.30
2023-05-07T21:48:30.386Z,0.20
2023-05-07T21:51:02.928Z,0.27
2023-05-07T21:53:31.046Z,0.30
2023-05-07T21:56:00.148Z,0.30
2023-05-07T21:58:28.384Z,0.30
2023-05-07T22:00:56.331Z,0.20
2023-05-07T22:03:24.729Z,0.20
2023-05-07T22:05:54.265Z,0.30
2023-05-07T22:08:24.496Z,0.20
2023-05-07T22:10:52.417Z,0.27
2023-05-07T22:13:20.757Z,0.20
2023-05-07T22:15:57.604Z,0.20
2023-05-07T22:18:29.057Z,0.20
2023-05-07T22:20:58.735Z,0.20
2023-05-07T22:23:27.471Z,0.20
2023-05-07T22:26:00.746Z,0.20
2023-05-07T22:28:31.181Z,0.20
2023-05-07T22:31:07.954Z,0.20
2023-05-07T22:33:37.837Z,0.20
2023-05-07T22:36:31.892Z,0.20
2023-05-07T22:39:14.115Z,0.20
2023-05-07T22:42:36.909Z,0.10
2023-05-07T22:45:07.804Z,0.20
2023-05-07T22:47:37.649Z,0.20
2023-05-07T22:50:07.740Z,0.30
2023-05-07T22:52:37.735Z,0.20
2023-05-07T22:55:10.692Z,0.30
2023-05-07T22:57:39.768Z,0.20
2023-05-07T23:00:12.993Z,0.30
2023-05-07T23:02:41.331Z,0.30
2023-05-07T23:05:09.615Z,0.30
2023-05-07T23:07:41.252Z,0.17
2023-05-07T23:10:12.677Z,0.20
2023-05-07T23:12:41.401Z,0.20
2023-05-07T23:15:11.430Z,0.20
2023-05-07T23:17:39.372Z,0.20
2023-05-07T23:20:08.746Z,0.20
2023-05-07T23:22:41.788Z,0.20
2023-05-07T23:25:10.454Z,0.30
2023-05-07T23:27:39.121Z,0.20
2023-05-07T23:30:09.289Z,0.20
2023-05-07T23:32:37.838Z,0.20
2023-05-07T23:35:06.770Z,0.20
2023-05-07T23:37:35.070Z,0.20
2023-05-07T23:40:08.617Z,0.30
2023-05-07T23:42:57.813Z,0.20
2023-05-07T23:45:25.974Z,0.20
2023-05-07T23:47:53.977Z,0.20
2023-05-07T23:50:22.522Z,0.20
2023-05-07T23:52:50.467Z,0.30
2023-05-07T23:55:21.288Z,0.20
2023-05-07T23:57:49.204Z,0.20
